LIC0243 LEBL-LEBA
Flight info
| Callsign | LIC0243 |
|---|---|
| Flight time | 1h 25m |
| Altitude | 37000 |
| Route | SENIA Z596 NEXAS N975 ADUXO N869 BLN N747 ALCOL |
| Aircraft | B737/M-SDE2E3FGHIRWXY/LB1 |
Departure
| Time | 2026-05-07 15:49 |
|---|---|
| Airport | Josep Tarradellas Barcelona-El Prat Airport (LEBL) |
Arrival
| Time | 2026-05-07 17:14 |
|---|---|
| Airport | Córdoba Airport (LEBA) |
| Time | Latitude | Longitude | Altitude | Speed | Heading |
|---|---|---|---|---|---|
| 2026-05-07 15:25 | 41.28982 | 2.07902 | 20 ft | 0 kts | 335° |
| 2026-05-07 15:37 | 41.28981 | 2.07902 | 19 ft | 0 kts | 335° |
| 2026-05-07 15:42 | 41.28979 | 2.07904 | 19 ft | 2 kts | 335° |
| 2026-05-07 15:42 | 41.28965 | 2.07912 | 19 ft | 2 kts | 335° |
| 2026-05-07 15:42 | 41.28951 | 2.07920 | 19 ft | 2 kts | 336° |
| 2026-05-07 15:43 | 41.28937 | 2.07928 | 19 ft | 2 kts | 335° |
| 2026-05-07 15:43 | 41.28923 | 2.07934 | 19 ft | 2 kts | 4° |
| 2026-05-07 15:43 | 41.28909 | 2.07929 | 19 ft | 2 kts | 31° |
| 2026-05-07 15:43 | 41.28898 | 2.07915 | 19 ft | 1 kts | 59° |
| 2026-05-07 15:44 | 41.28895 | 2.07908 | 19 ft | 1 kts | 68° |
| 2026-05-07 15:44 | 41.28894 | 2.07904 | 19 ft | 0 kts | 66° |
| 2026-05-07 15:46 | 41.28895 | 2.07907 | 19 ft | 2 kts | 66° |
| 2026-05-07 15:46 | 41.28874 | 2.07932 | 19 ft | 9 kts | 212° |
| 2026-05-07 15:46 | 41.28806 | 2.07882 | 19 ft | 14 kts | 167° |
| 2026-05-07 15:47 | 41.28699 | 2.07941 | 19 ft | 17 kts | 156° |
| 2026-05-07 15:47 | 41.28590 | 2.07921 | 19 ft | 20 kts | 234° |
| 2026-05-07 15:47 | 41.28522 | 2.07737 | 19 ft | 22 kts | 246° |
| 2026-05-07 15:47 | 41.28437 | 2.07573 | 19 ft | 21 kts | 218° |
| 2026-05-07 15:48 | 41.28324 | 2.07517 | 19 ft | 15 kts | 197° |
| 2026-05-07 15:48 | 41.28271 | 2.07542 | 19 ft | 8 kts | 82° |
| 2026-05-07 15:48 | 41.28278 | 2.07566 | 19 ft | 0 kts | 66° |
| 2026-05-07 15:49 | 41.28279 | 2.07569 | 19 ft | 2 kts | 66° |
| 2026-05-07 15:49 | 41.28386 | 2.07881 | 19 ft | 78 kts | 65° |
| 2026-05-07 15:49 | 41.28720 | 2.08853 | 21 ft | 150 kts | 67° |
| 2026-05-07 15:49 | 41.29160 | 2.10132 | 717 ft | 157 kts | 71° |
| 2026-05-07 15:50 | 41.29225 | 2.11520 | 1594 ft | 156 kts | 103° |
| 2026-05-07 15:50 | 41.28928 | 2.12919 | 2226 ft | 166 kts | 103° |
| 2026-05-07 15:50 | 41.28788 | 2.14514 | 2805 ft | 182 kts | 95° |
| 2026-05-07 15:50 | 41.28698 | 2.16257 | 3391 ft | 199 kts | 95° |
| 2026-05-07 15:51 | 41.28569 | 2.18118 | 4110 ft | 209 kts | 96° |
| 2026-05-07 15:51 | 41.28415 | 2.20044 | 4905 ft | 215 kts | 96° |
| 2026-05-07 15:51 | 41.28258 | 2.22016 | 5748 ft | 218 kts | 95° |
| 2026-05-07 15:51 | 41.28101 | 2.24024 | 6563 ft | 222 kts | 95° |
| 2026-05-07 15:52 | 41.27944 | 2.26037 | 7370 ft | 225 kts | 95° |
| 2026-05-07 15:52 | 41.27783 | 2.28107 | 8172 ft | 228 kts | 95° |
| 2026-05-07 15:52 | 41.27608 | 2.30187 | 8946 ft | 232 kts | 98° |
| 2026-05-07 15:52 | 41.27164 | 2.32250 | 9612 ft | 241 kts | 111° |
| 2026-05-07 15:53 | 41.26400 | 2.34319 | 10141 ft | 257 kts | 116° |
| 2026-05-07 15:53 | 41.25560 | 2.36449 | 10756 ft | 267 kts | 116° |
| 2026-05-07 15:53 | 41.24706 | 2.38688 | 11492 ft | 273 kts | 116° |
| 2026-05-07 15:53 | 41.23871 | 2.40951 | 12217 ft | 277 kts | 116° |
| 2026-05-07 15:54 | 41.23037 | 2.43244 | 12934 ft | 281 kts | 116° |
| 2026-05-07 15:54 | 41.22189 | 2.45576 | 13666 ft | 285 kts | 116° |
| 2026-05-07 15:54 | 41.21322 | 2.47957 | 14382 ft | 291 kts | 116° |
| 2026-05-07 15:54 | 41.20422 | 2.50419 | 14846 ft | 306 kts | 117° |
| 2026-05-07 15:55 | 41.19471 | 2.53015 | 15298 ft | 321 kts | 117° |
| 2026-05-07 15:55 | 41.18467 | 2.55755 | 15723 ft | 336 kts | 117° |
| 2026-05-07 15:55 | 41.17430 | 2.58569 | 16152 ft | 350 kts | 118° |
| 2026-05-07 15:55 | 41.16170 | 2.61407 | 16741 ft | 356 kts | 127° |
| 2026-05-07 15:56 | 41.14457 | 2.63730 | 17448 ft | 357 kts | 145° |
| 2026-05-07 15:56 | 41.12306 | 2.65273 | 18205 ft | 355 kts | 161° |
| 2026-05-07 15:56 | 41.09926 | 2.66172 | 18913 ft | 357 kts | 171° |
| 2026-05-07 15:56 | 41.07471 | 2.66541 | 19556 ft | 359 kts | 180° |
| 2026-05-07 15:57 | 41.04962 | 2.66354 | 20222 ft | 361 kts | 191° |
| 2026-05-07 15:57 | 41.02531 | 2.65507 | 20883 ft | 362 kts | 202° |
| 2026-05-07 15:57 | 41.00303 | 2.64077 | 21551 ft | 362 kts | 211° |
| 2026-05-07 15:57 | 40.98201 | 2.62228 | 22163 ft | 365 kts | 218° |
| 2026-05-07 15:58 | 40.96217 | 2.60093 | 22837 ft | 366 kts | 221° |
| 2026-05-07 15:58 | 40.94374 | 2.57818 | 23415 ft | 368 kts | 227° |
| 2026-05-07 15:58 | 40.92784 | 2.55128 | 24053 ft | 370 kts | 237° |
| 2026-05-07 15:58 | 40.91579 | 2.52178 | 24692 ft | 371 kts | 244° |
| 2026-05-07 15:59 | 40.90636 | 2.48972 | 25299 ft | 374 kts | 249° |
| 2026-05-07 15:59 | 40.89844 | 2.45682 | 25867 ft | 377 kts | 250° |
| 2026-05-07 15:59 | 40.89115 | 2.42381 | 26451 ft | 378 kts | 251° |
| 2026-05-07 15:59 | 40.88386 | 2.39038 | 26962 ft | 381 kts | 250° |
| 2026-05-07 16:00 | 40.87645 | 2.35687 | 27484 ft | 383 kts | 250° |
| 2026-05-07 16:00 | 40.86884 | 2.32314 | 28041 ft | 384 kts | 249° |
| 2026-05-07 16:00 | 40.86108 | 2.28926 | 28544 ft | 386 kts | 248° |
| 2026-05-07 16:00 | 40.85330 | 2.25573 | 28963 ft | 389 kts | 248° |
| 2026-05-07 16:01 | 40.84568 | 2.22111 | 29405 ft | 393 kts | 250° |
| 2026-05-07 16:01 | 40.84023 | 2.18582 | 29891 ft | 397 kts | 255° |
| 2026-05-07 16:01 | 40.83748 | 2.14908 | 30262 ft | 406 kts | 261° |
| 2026-05-07 16:01 | 40.83693 | 2.11187 | 30668 ft | 410 kts | 263° |
| 2026-05-07 16:02 | 40.83751 | 2.07436 | 31078 ft | 414 kts | 265° |
| 2026-05-07 16:02 | 40.83862 | 2.03647 | 31479 ft | 417 kts | 265° |
| 2026-05-07 16:02 | 40.83995 | 1.99837 | 32184 ft | 411 kts | 265° |
| 2026-05-07 16:02 | 40.84129 | 1.96112 | 32903 ft | 405 kts | 265° |
| 2026-05-07 16:03 | 40.84256 | 1.92426 | 33461 ft | 402 kts | 265° |
| 2026-05-07 16:03 | 40.84373 | 1.88759 | 33944 ft | 400 kts | 265° |
| 2026-05-07 16:03 | 40.84481 | 1.85102 | 34403 ft | 398 kts | 265° |
| 2026-05-07 16:03 | 40.84582 | 1.81502 | 34763 ft | 398 kts | 265° |
| 2026-05-07 16:04 | 40.84681 | 1.77821 | 35016 ft | 398 kts | 265° |
| 2026-05-07 16:04 | 40.84775 | 1.74182 | 35218 ft | 399 kts | 265° |
| 2026-05-07 16:04 | 40.84865 | 1.70562 | 35416 ft | 400 kts | 265° |
| 2026-05-07 16:04 | 40.84955 | 1.66915 | 35655 ft | 399 kts | 266° |
| 2026-05-07 16:05 | 40.85044 | 1.63265 | 35884 ft | 399 kts | 266° |
| 2026-05-07 16:05 | 40.85133 | 1.59610 | 36127 ft | 399 kts | 266° |
| 2026-05-07 16:05 | 40.85219 | 1.55977 | 36335 ft | 401 kts | 266° |
| 2026-05-07 16:05 | 40.85306 | 1.52278 | 36618 ft | 402 kts | 266° |
| 2026-05-07 16:06 | 40.85392 | 1.48611 | 36890 ft | 402 kts | 266° |
| 2026-05-07 16:06 | 40.85559 | 1.41227 | 36922 ft | 403 kts | 267° |
| 2026-05-07 16:07 | 40.85727 | 1.33824 | 36924 ft | 401 kts | 266° |
| 2026-05-07 16:07 | 40.85884 | 1.26485 | 36923 ft | 400 kts | 266° |
| 2026-05-07 16:08 | 40.86035 | 1.19152 | 36926 ft | 403 kts | 266° |
| 2026-05-07 16:08 | 40.86184 | 1.11763 | 36926 ft | 401 kts | 266° |
| 2026-05-07 16:09 | 40.86328 | 1.04405 | 36922 ft | 403 kts | 266° |
| 2026-05-07 16:09 | 40.86469 | 0.97015 | 36926 ft | 403 kts | 266° |
| 2026-05-07 16:10 | 40.86604 | 0.89608 | 36923 ft | 404 kts | 266° |
| 2026-05-07 16:10 | 40.86736 | 0.82214 | 36919 ft | 404 kts | 266° |
| 2026-05-07 16:11 | 40.86862 | 0.74757 | 36918 ft | 404 kts | 266° |
| 2026-05-07 16:11 | 40.86954 | 0.67358 | 36913 ft | 404 kts | 266° |
| 2026-05-07 16:12 | 40.87000 | 0.59998 | 36907 ft | 403 kts | 266° |
| 2026-05-07 16:12 | 40.87038 | 0.52599 | 36909 ft | 404 kts | 266° |
| 2026-05-07 16:13 | 40.87078 | 0.45217 | 36908 ft | 403 kts | 266° |
| 2026-05-07 16:13 | 40.87114 | 0.37799 | 36911 ft | 403 kts | 266° |
| 2026-05-07 16:14 | 40.87147 | 0.30419 | 36913 ft | 404 kts | 266° |
| 2026-05-07 16:14 | 40.87178 | 0.23019 | 36926 ft | 404 kts | 266° |
| 2026-05-07 16:15 | 40.87205 | 0.15581 | 36930 ft | 404 kts | 266° |
| 2026-05-07 16:15 | 40.87216 | 0.11913 | 37075 ft | 404 kts | 266° |
| 2026-05-07 16:15 | 40.87225 | 0.08175 | 36937 ft | 404 kts | 266° |
| 2026-05-07 16:16 | 40.87242 | 0.00863 | 36822 ft | 399 kts | 266° |
| 2026-05-07 16:16 | 40.87249 | -0.02841 | 36923 ft | 402 kts | 266° |
| 2026-05-07 16:16 | 40.87252 | -0.06518 | 36974 ft | 407 kts | 266° |
| 2026-05-07 16:17 | 40.87259 | -0.13874 | 36927 ft | 400 kts | 266° |
| 2026-05-07 16:17 | 40.87261 | -0.21238 | 36929 ft | 402 kts | 266° |
| 2026-05-07 16:18 | 40.87258 | -0.28568 | 36931 ft | 401 kts | 266° |
| 2026-05-07 16:18 | 40.87250 | -0.35918 | 36935 ft | 402 kts | 267° |
| 2026-05-07 16:19 | 40.87240 | -0.43303 | 36937 ft | 402 kts | 266° |
| 2026-05-07 16:19 | 40.87223 | -0.50666 | 36940 ft | 402 kts | 267° |
| 2026-05-07 16:20 | 40.87201 | -0.58016 | 36939 ft | 403 kts | 267° |
| 2026-05-07 16:20 | 40.87175 | -0.65416 | 36937 ft | 404 kts | 266° |
| 2026-05-07 16:21 | 40.87137 | -0.72815 | 36945 ft | 402 kts | 266° |
| 2026-05-07 16:21 | 40.86615 | -0.80134 | 36944 ft | 400 kts | 256° |
| 2026-05-07 16:22 | 40.85045 | -0.87135 | 36945 ft | 398 kts | 249° |
| 2026-05-07 16:22 | 40.83138 | -0.93948 | 36947 ft | 398 kts | 249° |
| 2026-05-07 16:23 | 40.81181 | -1.00821 | 36957 ft | 400 kts | 249° |
| 2026-05-07 16:23 | 40.79249 | -1.07670 | 36958 ft | 400 kts | 249° |
| 2026-05-07 16:24 | 40.77319 | -1.14552 | 36960 ft | 399 kts | 249° |
| 2026-05-07 16:24 | 40.75404 | -1.21384 | 36962 ft | 398 kts | 250° |
| 2026-05-07 16:25 | 40.73478 | -1.28255 | 36961 ft | 399 kts | 250° |
| 2026-05-07 16:25 | 40.71561 | -1.35081 | 36958 ft | 399 kts | 250° |
| 2026-05-07 16:26 | 40.69635 | -1.41921 | 36956 ft | 398 kts | 250° |
| 2026-05-07 16:26 | 40.67709 | -1.48748 | 36956 ft | 398 kts | 250° |
| 2026-05-07 16:27 | 40.65781 | -1.55559 | 36955 ft | 398 kts | 250° |
| 2026-05-07 16:27 | 40.63854 | -1.62348 | 36955 ft | 398 kts | 250° |
| 2026-05-07 16:28 | 40.61907 | -1.69192 | 36954 ft | 397 kts | 249° |
| 2026-05-07 16:28 | 40.59973 | -1.75967 | 36953 ft | 395 kts | 250° |
| 2026-05-07 16:29 | 40.58035 | -1.82745 | 36952 ft | 396 kts | 250° |
| 2026-05-07 16:29 | 40.56099 | -1.89492 | 36953 ft | 396 kts | 250° |
| 2026-05-07 16:30 | 40.54161 | -1.96231 | 36949 ft | 397 kts | 250° |
| 2026-05-07 16:30 | 40.52035 | -2.02877 | 36943 ft | 397 kts | 243° |
| 2026-05-07 16:31 | 40.48546 | -2.08522 | 36944 ft | 403 kts | 224° |
| 2026-05-07 16:31 | 40.44019 | -2.12926 | 36949 ft | 405 kts | 218° |
| 2026-05-07 16:32 | 40.39312 | -2.17024 | 36943 ft | 407 kts | 217° |
| 2026-05-07 16:32 | 40.34596 | -2.21098 | 36954 ft | 406 kts | 218° |
| 2026-05-07 16:33 | 40.29892 | -2.25185 | 36940 ft | 405 kts | 218° |
| 2026-05-07 16:33 | 40.25205 | -2.29272 | 36940 ft | 405 kts | 219° |
| 2026-05-07 16:34 | 40.20537 | -2.33346 | 36942 ft | 405 kts | 219° |
| 2026-05-07 16:34 | 40.15863 | -2.37423 | 36815 ft | 402 kts | 219° |
| 2026-05-07 16:34 | 40.13528 | -2.39458 | 36932 ft | 405 kts | 219° |
| 2026-05-07 16:35 | 40.11164 | -2.41519 | 36934 ft | 408 kts | 219° |
| 2026-05-07 16:35 | 40.06441 | -2.45624 | 36939 ft | 406 kts | 219° |
| 2026-05-07 16:36 | 40.01746 | -2.49697 | 36930 ft | 406 kts | 219° |
| 2026-05-07 16:36 | 39.97028 | -2.53790 | 36942 ft | 407 kts | 220° |
| 2026-05-07 16:37 | 39.92343 | -2.57839 | 36932 ft | 403 kts | 220° |
| 2026-05-07 16:37 | 39.87659 | -2.61886 | 36930 ft | 406 kts | 220° |
| 2026-05-07 16:38 | 39.82951 | -2.65945 | 36932 ft | 406 kts | 219° |
| 2026-05-07 16:38 | 39.78239 | -2.70001 | 36938 ft | 406 kts | 219° |
| 2026-05-07 16:39 | 39.73524 | -2.74049 | 36931 ft | 404 kts | 220° |
| 2026-05-07 16:39 | 39.68839 | -2.78072 | 36941 ft | 405 kts | 220° |
| 2026-05-07 16:40 | 39.64117 | -2.82117 | 36944 ft | 407 kts | 220° |
| 2026-05-07 16:40 | 39.59385 | -2.86161 | 36949 ft | 407 kts | 220° |
| 2026-05-07 16:41 | 39.54665 | -2.90192 | 36940 ft | 404 kts | 220° |
| 2026-05-07 16:41 | 39.50001 | -2.94168 | 36931 ft | 405 kts | 220° |
| 2026-05-07 16:42 | 39.45264 | -2.98202 | 36921 ft | 404 kts | 220° |
| 2026-05-07 16:42 | 39.40528 | -3.02103 | 36916 ft | 407 kts | 217° |
| 2026-05-07 16:43 | 39.35312 | -3.05221 | 36913 ft | 415 kts | 209° |
| 2026-05-07 16:43 | 39.29911 | -3.07815 | 36916 ft | 417 kts | 208° |
| 2026-05-07 16:44 | 39.24412 | -3.10392 | 36917 ft | 417 kts | 208° |
| 2026-05-07 16:44 | 39.19002 | -3.12963 | 36915 ft | 416 kts | 209° |
| 2026-05-07 16:45 | 39.13576 | -3.15571 | 36919 ft | 416 kts | 209° |
| 2026-05-07 16:45 | 39.08155 | -3.18185 | 36918 ft | 416 kts | 209° |
| 2026-05-07 16:46 | 39.02761 | -3.20785 | 36909 ft | 414 kts | 209° |
| 2026-05-07 16:46 | 38.97359 | -3.23393 | 36916 ft | 415 kts | 209° |
| 2026-05-07 16:47 | 38.91958 | -3.25991 | 36918 ft | 416 kts | 209° |
| 2026-05-07 16:47 | 38.86552 | -3.28590 | 36919 ft | 416 kts | 210° |
| 2026-05-07 16:48 | 38.81147 | -3.31176 | 36689 ft | 406 kts | 210° |
| 2026-05-07 16:48 | 38.78532 | -3.32419 | 36271 ft | 401 kts | 210° |
| 2026-05-07 16:48 | 38.75886 | -3.33684 | 35836 ft | 401 kts | 211° |
| 2026-05-07 16:48 | 38.73281 | -3.34932 | 35310 ft | 402 kts | 211° |
| 2026-05-07 16:49 | 38.70671 | -3.36184 | 34703 ft | 404 kts | 211° |
| 2026-05-07 16:49 | 38.68036 | -3.37447 | 34176 ft | 402 kts | 211° |
| 2026-05-07 16:49 | 38.65422 | -3.38693 | 33721 ft | 398 kts | 211° |
| 2026-05-07 16:49 | 38.62840 | -3.39922 | 33279 ft | 397 kts | 211° |
| 2026-05-07 16:50 | 38.60229 | -3.41167 | 32822 ft | 394 kts | 211° |
| 2026-05-07 16:50 | 38.57693 | -3.42372 | 32375 ft | 391 kts | 211° |
| 2026-05-07 16:50 | 38.55135 | -3.43589 | 31933 ft | 390 kts | 211° |
| 2026-05-07 16:50 | 38.52575 | -3.44808 | 31485 ft | 390 kts | 211° |
| 2026-05-07 16:51 | 38.50037 | -3.46014 | 31004 ft | 387 kts | 210° |
| 2026-05-07 16:51 | 38.47541 | -3.47196 | 30567 ft | 384 kts | 210° |
| 2026-05-07 16:51 | 38.45022 | -3.48392 | 30117 ft | 385 kts | 210° |
| 2026-05-07 16:51 | 38.42525 | -3.49578 | 29648 ft | 383 kts | 210° |
| 2026-05-07 16:52 | 38.40048 | -3.50751 | 29204 ft | 380 kts | 210° |
| 2026-05-07 16:52 | 38.37570 | -3.51921 | 28755 ft | 376 kts | 210° |
| 2026-05-07 16:52 | 38.35119 | -3.53079 | 28300 ft | 374 kts | 209° |
| 2026-05-07 16:52 | 38.32703 | -3.54220 | 27847 ft | 371 kts | 210° |
| 2026-05-07 16:53 | 38.30285 | -3.55364 | 27410 ft | 370 kts | 209° |
| 2026-05-07 16:53 | 38.27864 | -3.56508 | 26952 ft | 368 kts | 209° |
| 2026-05-07 16:53 | 38.25465 | -3.57640 | 26503 ft | 368 kts | 209° |
| 2026-05-07 16:53 | 38.23083 | -3.58763 | 26051 ft | 364 kts | 209° |
| 2026-05-07 16:54 | 38.20707 | -3.59912 | 25600 ft | 359 kts | 211° |
| 2026-05-07 16:54 | 38.18508 | -3.61312 | 25158 ft | 349 kts | 220° |
| 2026-05-07 16:54 | 38.16598 | -3.63157 | 24718 ft | 336 kts | 231° |
| 2026-05-07 16:54 | 38.15034 | -3.65311 | 24306 ft | 329 kts | 237° |
| 2026-05-07 16:55 | 38.13699 | -3.67644 | 23864 ft | 327 kts | 243° |
| 2026-05-07 16:55 | 38.12616 | -3.70142 | 23437 ft | 320 kts | 249° |
| 2026-05-07 16:55 | 38.11733 | -3.72710 | 23018 ft | 316 kts | 252° |
| 2026-05-07 16:55 | 38.10923 | -3.75297 | 22599 ft | 316 kts | 253° |
| 2026-05-07 16:56 | 38.10124 | -3.77875 | 22171 ft | 315 kts | 252° |
| 2026-05-07 16:56 | 38.09315 | -3.80437 | 21747 ft | 313 kts | 252° |
| 2026-05-07 16:56 | 38.07666 | -3.85546 | 20909 ft | 312 kts | 251° |
| 2026-05-07 16:57 | 38.06837 | -3.88075 | 20476 ft | 310 kts | 251° |
| 2026-05-07 16:57 | 38.06008 | -3.90595 | 20048 ft | 310 kts | 251° |
| 2026-05-07 16:57 | 38.05180 | -3.93108 | 19620 ft | 311 kts | 251° |
| 2026-05-07 16:57 | 38.04347 | -3.95635 | 19196 ft | 310 kts | 251° |
| 2026-05-07 16:58 | 38.03512 | -3.98160 | 18763 ft | 308 kts | 251° |
| 2026-05-07 16:58 | 38.02686 | -4.00657 | 18332 ft | 307 kts | 250° |
| 2026-05-07 16:58 | 38.01872 | -4.03118 | 17902 ft | 305 kts | 250° |
| 2026-05-07 16:58 | 38.01051 | -4.05593 | 17478 ft | 304 kts | 250° |
| 2026-05-07 16:59 | 38.00235 | -4.08053 | 17055 ft | 303 kts | 250° |
| 2026-05-07 16:59 | 37.99425 | -4.10493 | 16642 ft | 302 kts | 250° |
| 2026-05-07 16:59 | 37.98605 | -4.12961 | 16213 ft | 302 kts | 249° |
| 2026-05-07 16:59 | 37.97789 | -4.15416 | 15798 ft | 301 kts | 249° |
| 2026-05-07 17:00 | 37.96984 | -4.17832 | 15380 ft | 300 kts | 249° |
| 2026-05-07 17:00 | 37.96172 | -4.20269 | 14974 ft | 299 kts | 248° |
| 2026-05-07 17:00 | 37.95360 | -4.22703 | 14541 ft | 300 kts | 248° |
| 2026-05-07 17:00 | 37.94550 | -4.25129 | 14121 ft | 300 kts | 248° |
| 2026-05-07 17:01 | 37.93750 | -4.27524 | 13707 ft | 299 kts | 247° |
| 2026-05-07 17:01 | 37.92935 | -4.29962 | 13286 ft | 298 kts | 247° |
| 2026-05-07 17:01 | 37.92135 | -4.32354 | 12897 ft | 297 kts | 247° |
| 2026-05-07 17:01 | 37.91331 | -4.34755 | 12484 ft | 296 kts | 247° |
| 2026-05-07 17:02 | 37.90523 | -4.37165 | 12060 ft | 296 kts | 247° |
| 2026-05-07 17:02 | 37.89722 | -4.39553 | 11648 ft | 295 kts | 247° |
| 2026-05-07 17:02 | 37.88921 | -4.41939 | 11255 ft | 293 kts | 246° |
| 2026-05-07 17:02 | 37.88127 | -4.44302 | 10844 ft | 292 kts | 246° |
| 2026-05-07 17:03 | 37.87328 | -4.46678 | 10424 ft | 292 kts | 246° |
| 2026-05-07 17:03 | 37.86593 | -4.49028 | 10092 ft | 288 kts | 252° |
| 2026-05-07 17:03 | 37.86346 | -4.51492 | 9867 ft | 283 kts | 276° |
| 2026-05-07 17:03 | 37.86992 | -4.53815 | 9705 ft | 276 kts | 301° |
| 2026-05-07 17:04 | 37.88234 | -4.55644 | 9327 ft | 277 kts | 318° |
| 2026-05-07 17:04 | 37.89836 | -4.56975 | 8975 ft | 277 kts | 338° |
| 2026-05-07 17:04 | 37.91742 | -4.57380 | 8636 ft | 276 kts | 5° |
| 2026-05-07 17:04 | 37.93596 | -4.56811 | 8291 ft | 275 kts | 23° |
| 2026-05-07 17:05 | 37.95236 | -4.55605 | 7947 ft | 273 kts | 42° |
| 2026-05-07 17:05 | 37.96424 | -4.53742 | 7607 ft | 271 kts | 60° |
| 2026-05-07 17:05 | 37.97357 | -4.51706 | 7263 ft | 271 kts | 55° |
| 2026-05-07 17:05 | 37.98754 | -4.50148 | 6910 ft | 270 kts | 28° |
| 2026-05-07 17:06 | 38.00516 | -4.49348 | 6608 ft | 267 kts | 12° |
| 2026-05-07 17:06 | 38.02347 | -4.49160 | 6280 ft | 264 kts | 349° |
| 2026-05-07 17:06 | 38.03984 | -4.50123 | 5973 ft | 258 kts | 318° |
| 2026-05-07 17:06 | 38.05086 | -4.51844 | 5669 ft | 254 kts | 297° |
| 2026-05-07 17:07 | 38.05689 | -4.53940 | 5409 ft | 249 kts | 280° |
| 2026-05-07 17:07 | 38.06004 | -4.56049 | 5316 ft | 238 kts | 282° |
| 2026-05-07 17:07 | 38.06547 | -4.57985 | 5247 ft | 230 kts | 296° |
| 2026-05-07 17:07 | 38.07363 | -4.59669 | 5186 ft | 225 kts | 302° |
| 2026-05-07 17:08 | 38.08158 | -4.61399 | 5107 ft | 226 kts | 289° |
| 2026-05-07 17:08 | 38.08259 | -4.63296 | 5010 ft | 214 kts | 252° |
| 2026-05-07 17:08 | 38.07467 | -4.64861 | 4758 ft | 213 kts | 224° |
| 2026-05-07 17:08 | 38.06299 | -4.66058 | 4495 ft | 214 kts | 217° |
| 2026-05-07 17:09 | 38.05106 | -4.67142 | 4252 ft | 213 kts | 215° |
| 2026-05-07 17:09 | 38.03881 | -4.68202 | 4021 ft | 212 kts | 214° |
| 2026-05-07 17:09 | 38.02643 | -4.69250 | 3784 ft | 211 kts | 214° |
| 2026-05-07 17:09 | 38.01427 | -4.70275 | 3560 ft | 209 kts | 214° |
| 2026-05-07 17:10 | 38.00251 | -4.71264 | 3506 ft | 195 kts | 214° |
| 2026-05-07 17:10 | 37.99157 | -4.72184 | 3505 ft | 183 kts | 215° |
| 2026-05-07 17:10 | 37.98089 | -4.73080 | 3437 ft | 184 kts | 215° |
| 2026-05-07 17:10 | 37.97015 | -4.73982 | 3156 ft | 185 kts | 216° |
| 2026-05-07 17:11 | 37.95947 | -4.74889 | 2898 ft | 184 kts | 214° |
| 2026-05-07 17:11 | 37.94886 | -4.75774 | 2669 ft | 180 kts | 214° |
| 2026-05-07 17:11 | 37.93876 | -4.76625 | 2419 ft | 172 kts | 215° |
| 2026-05-07 17:11 | 37.92900 | -4.77447 | 2198 ft | 168 kts | 215° |
| 2026-05-07 17:12 | 37.91931 | -4.78260 | 1988 ft | 160 kts | 215° |
| 2026-05-07 17:12 | 37.91045 | -4.79006 | 1743 ft | 149 kts | 216° |
| 2026-05-07 17:12 | 37.90212 | -4.79707 | 1567 ft | 138 kts | 216° |
| 2026-05-07 17:12 | 37.89428 | -4.80382 | 1392 ft | 138 kts | 215° |
| 2026-05-07 17:13 | 37.88636 | -4.81058 | 1201 ft | 138 kts | 217° |
| 2026-05-07 17:13 | 37.87957 | -4.81910 | 990 ft | 136 kts | 228° |
| 2026-05-07 17:13 | 37.87240 | -4.82689 | 810 ft | 136 kts | 218° |
| 2026-05-07 17:13 | 37.86432 | -4.83330 | 627 ft | 139 kts | 212° |
| 2026-05-07 17:14 | 37.85582 | -4.83921 | 462 ft | 143 kts | 212° |
| 2026-05-07 17:14 | 37.84713 | -4.84530 | 315 ft | 136 kts | 211° |
| 2026-05-07 17:14 | 37.84106 | -4.84954 | 312 ft | 64 kts | 210° |
| 2026-05-07 17:14 | 37.83904 | -4.85106 | 312 ft | 16 kts | 221° |
| 2026-05-07 17:15 | 37.83858 | -4.85129 | 312 ft | 7 kts | 69° |
| 2026-05-07 17:15 | 37.83929 | -4.85070 | 312 ft | 16 kts | 24° |
| 2026-05-07 17:15 | 37.84032 | -4.85002 | 312 ft | 17 kts | 29° |
| 2026-05-07 17:15 | 37.84137 | -4.84930 | 312 ft | 17 kts | 27° |
| 2026-05-07 17:16 | 37.84241 | -4.84861 | 312 ft | 16 kts | 27° |
| 2026-05-07 17:16 | 37.84343 | -4.84795 | 313 ft | 16 kts | 29° |
| 2026-05-07 17:16 | 37.84340 | -4.84683 | 313 ft | 13 kts | 118° |
| 2026-05-07 17:16 | 37.84317 | -4.84594 | 314 ft | 9 kts | 69° |
| 2026-05-07 17:17 | 37.84361 | -4.84543 | 315 ft | 7 kts | 37° |
| 2026-05-07 17:17 | 37.84371 | -4.84498 | 316 ft | 5 kts | 121° |
| 2026-05-07 17:17 | 37.84354 | -4.84462 | 317 ft | 5 kts | 119° |
| 2026-05-07 17:17 | 37.84338 | -4.84427 | 317 ft | 0 kts | 119° |